Capitan V A Almonacid Airport


Codes: SANL/IRJ
Name: Capitan V A Almonacid Airport
City: La Rioja
Country: Argentina
Elevation: 1437 ft.

Photos at Capitan V A Almonacid Airport


   Photos courtesy of SpottingLog. You can add your own sightings and photos by signing up for a free trial today.



No photos found.

Weather at Capitan V A Almonacid Airport


Time (UTC)DescriptionTempratureWindCloud coverageVisibilityPressureHumidity
13-Jun-2024 03:00Few Clouds17°C2 mph, NW17%10000m999hPa66%
13-Jun-2024 06:00Scattered Clouds16°C0 mph, NE28%10000m998hPa65%
13-Jun-2024 09:00Broken Clouds15°C0 mph, S72%10000m997hPa64%
13-Jun-2024 12:00Overcast Clouds16°C2 mph, S96%10000m996hPa52%
13-Jun-2024 15:00Broken Clouds26°C4 mph, NE83%10000m996hPa28%
13-Jun-2024 18:00Broken Clouds32°C7 mph, E70%10000m992hPa18%
13-Jun-2024 21:00Broken Clouds27°C7 mph, S80%10000m994hPa31%
14-Jun-2024 00:00Overcast Clouds20°C7 mph, S85%10000m997hPa47%
14-Jun-2024 03:00Clear Sky20°C7 mph, SW7%10000m998hPa37%
14-Jun-2024 06:00Clear Sky20°C4 mph, W2%10000m999hPa41%
14-Jun-2024 09:00Clear Sky17°C2 mph, SW2%10000m1000hPa64%
14-Jun-2024 12:00Clear Sky18°C2 mph, NW2%10000m1003hPa73%
14-Jun-2024 15:00Clear Sky25°C11 mph, NE2%10000m1004hPa33%
14-Jun-2024 18:00Clear Sky26°C7 mph, E3%10000m1002hPa29%
14-Jun-2024 21:00Clear Sky24°C4 mph, E2%10000m1005hPa39%
15-Jun-2024 00:00Clear Sky17°C9 mph, SW1%10000m1011hPa52%
15-Jun-2024 03:00Clear Sky14°C2 mph, S1%10000m1014hPa62%
15-Jun-2024 06:00Clear Sky14°C2 mph, SW1%10000m1015hPa56%
15-Jun-2024 09:00Clear Sky12°C2 mph, NW0%10000m1016hPa64%
15-Jun-2024 12:00Clear Sky14°C2 mph, NW0%10000m1017hPa56%
15-Jun-2024 15:00Clear Sky19°C7 mph, SE0%10000m1017hPa39%
15-Jun-2024 18:00Clear Sky20°C4 mph, SE4%10000m1014hPa42%
15-Jun-2024 21:00Scattered Clouds19°C7 mph, E49%10000m1014hPa47%
16-Jun-2024 00:00Scattered Clouds13°C2 mph, W36%10000m1016hPa63%
16-Jun-2024 03:00Clear Sky13°C4 mph, SW1%10000m1016hPa63%
16-Jun-2024 06:00Clear Sky12°C4 mph, SW0%10000m1016hPa65%
16-Jun-2024 09:00Clear Sky12°C7 mph, SW0%10000m1015hPa65%
16-Jun-2024 12:00Clear Sky12°C7 mph, SW0%10000m1017hPa61%
16-Jun-2024 15:00Clear Sky18°C7 mph, SE0%10000m1017hPa44%
16-Jun-2024 18:00Clear Sky20°C7 mph, SE0%10000m1014hPa40%
16-Jun-2024 21:00Clear Sky19°C2 mph, SE0%10000m1013hPa46%
17-Jun-2024 00:00Clear Sky14°C4 mph, W0%10000m1014hPa62%
17-Jun-2024 03:00Clear Sky14°C4 mph, W0%10000m1013hPa62%
17-Jun-2024 06:00Clear Sky12°C4 mph, SW0%10000m1012hPa67%
17-Jun-2024 09:00Clear Sky11°C4 mph, SW1%10000m1010hPa72%
17-Jun-2024 12:00Clear Sky12°C2 mph, SW3%10000m1010hPa71%
17-Jun-2024 15:00Clear Sky18°C4 mph, SE2%10000m1009hPa48%
17-Jun-2024 18:00Clear Sky21°C4 mph, E1%10000m1004hPa41%
17-Jun-2024 21:00Clear Sky19°C4 mph, E0%10000m1004hPa47%
18-Jun-2024 00:00Clear Sky14°C4 mph, SW0%10000m1006hPa72%